Okay, OK

11:47 AM CST on November 23, 2014 (GMT -0600)
Muskogee River Bend | Change Station
CLOSE
Current Station
Personal Weather Station
Location: Muskogee, OK
Elevation: 543 ft
Nearby Weather Stations

Elev 543 ft 35.79 °N, 95.32 °W | Updated 14 seconds ago

Overcast
Overcast
64.2 °F
Feels Like 64.2 °F
N
5.0
Wind Variable Wind from SSW
Gusts 9.0 mph

Today
High -- | Low -- °F
--% Chance of Precip.
Yesterday
High -- | Low -- °F
Precip. -- in
7:05 AM 5:09 PM
New Moon, 2% visible
Pressure 29.42 in
Visibility 10.0 miles
Clouds Scattered Clouds 1300 ft
Mostly Cloudy 2200 ft
Dew Point 60 °F
Humidity 86%
Rainfall 0.00 in
Snow Depth Not available.
UV 2 out of 12
Pollen 2.40 out of 12
Air Quality Not available.
Flu Activity Not available.
METAR KMKO 231653Z AUTO 15009KT 10SM SCT013 BKN022 17/14 A2942 RMK AO2 PRESFR SLP960 T01670139

More Conditions Fewer Conditions

Pressure 29.42 in
Visibility 10.0 miles
Clouds Scattered Clouds 1300 ft
Mostly Cloudy 2200 ft
Dew Point 60 °F
Humidity 86%
Rainfall 0.00 in
Snow Depth Not available.
UV 2 out of 12
Pollen 2.40 out of 12
Air Quality Not available.
Flu Activity Not available.
METAR KMKO 231653Z AUTO 15009KT 10SM SCT013 BKN022 17/14 A2942 RMK AO2 PRESFR SLP960 T01670139

More Conditions Fewer Conditions

10-Day Weather Forecast

Almanac

Astronomy

Nov. 23, 2014 Rise Set
Actual Time
Civil Twilight
Nautical Twilight
Astronomical Twilight
Moon
Length of Visible Light
Length of Day
Tomorrow will be .
, % of the Moon is Illuminated

Today's Extremes

State Highs State Lows

Community

WunderPhotos

Upload Photos

1,773,116 photos uploaded!

WunderBlogs® & News

Nearby

Air Quality

  Air Quality AQ Index Pollutant
Not available.

Snow Depth

Station Depth Elevation

Earthquake Activity

City Distance Mag. Time & Date
Minimum magnitude displayed is 2.5.

Coastal Water Temperatures

Place Temperature

Nearby Weather Stations